sensor_id;sensor_type;location;lat;lon;timestamp;temperature;humidity
7077;DHT22;3579;48.956;9.154;2024-01-30T00:02:11;13.40;68.10
7077;DHT22;3579;48.956;9.154;2024-01-30T00:04:37;13.30;68.00
7077;DHT22;3579;48.956;9.154;2024-01-30T00:07:03;13.30;68.10
7077;DHT22;3579;48.956;9.154;2024-01-30T00:09:29;13.30;68.10
7077;DHT22;3579;48.956;9.154;2024-01-30T00:11:56;13.30;68.80
7077;DHT22;3579;48.956;9.154;2024-01-30T00:14:22;13.30;68.10
7077;DHT22;3579;48.956;9.154;2024-01-30T00:16:49;13.30;68.20
7077;DHT22;3579;48.956;9.154;2024-01-30T00:19:15;13.20;68.10
7077;DHT22;3579;48.956;9.154;2024-01-30T00:21:41;13.30;68.20
7077;DHT22;3579;48.956;9.154;2024-01-30T00:24:07;13.30;68.20
7077;DHT22;3579;48.956;9.154;2024-01-30T00:26:33;13.20;68.20
7077;DHT22;3579;48.956;9.154;2024-01-30T00:28:59;13.20;68.20
7077;DHT22;3579;48.956;9.154;2024-01-30T00:31:25;13.20;68.20
7077;DHT22;3579;48.956;9.154;2024-01-30T00:33:51;13.20;68.20
7077;DHT22;3579;48.956;9.154;2024-01-30T00:36:17;13.20;68.20
7077;DHT22;3579;48.956;9.154;2024-01-30T00:38:43;13.20;68.20
7077;DHT22;3579;48.956;9.154;2024-01-30T00:41:09;13.20;68.30
7077;DHT22;3579;48.956;9.154;2024-01-30T00:43:36;13.20;68.30
7077;DHT22;3579;48.956;9.154;2024-01-30T00:46:02;13.20;68.30
7077;DHT22;3579;48.956;9.154;2024-01-30T00:48:29;13.10;68.30
7077;DHT22;3579;48.956;9.154;2024-01-30T00:50:55;13.10;68.30
7077;DHT22;3579;48.956;9.154;2024-01-30T00:53:21;13.10;68.30
7077;DHT22;3579;48.956;9.154;2024-01-30T00:55:47;13.10;68.30
7077;DHT22;3579;48.956;9.154;2024-01-30T00:58:13;13.10;68.30
7077;DHT22;3579;48.956;9.154;2024-01-30T01:00:39;13.10;68.30
7077;DHT22;3579;48.956;9.154;2024-01-30T01:03:05;13.10;68.30
7077;DHT22;3579;48.956;9.154;2024-01-30T01:05:31;13.10;68.30
7077;DHT22;3579;48.956;9.154;2024-01-30T01:07:57;13.30;68.20
7077;DHT22;3579;48.956;9.154;2024-01-30T01:10:23;13.10;68.40
7077;DHT22;3579;48.956;9.154;2024-01-30T01:12:49;13.00;68.40
7077;DHT22;3579;48.956;9.154;2024-01-30T01:15:15;13.00;68.50
7077;DHT22;3579;48.956;9.154;2024-01-30T01:17:41;13.00;69.20
7077;DHT22;3579;48.956;9.154;2024-01-30T01:20:08;13.00;68.50
7077;DHT22;3579;48.956;9.154;2024-01-30T01:22:34;13.00;68.50
7077;DHT22;3579;48.956;9.154;2024-01-30T01:25:01;13.00;68.60
7077;DHT22;3579;48.956;9.154;2024-01-30T01:27:27;13.00;68.60
7077;DHT22;3579;48.956;9.154;2024-01-30T01:29:53;13.00;68.60
7077;DHT22;3579;48.956;9.154;2024-01-30T01:32:20;13.00;69.30
7077;DHT22;3579;48.956;9.154;2024-01-30T01:34:46;13.00;68.60
7077;DHT22;3579;48.956;9.154;2024-01-30T01:37:12;13.00;68.60
7077;DHT22;3579;48.956;9.154;2024-01-30T01:39:38;13.00;69.30
7077;DHT22;3579;48.956;9.154;2024-01-30T01:42:04;12.90;68.60
7077;DHT22;3579;48.956;9.154;2024-01-30T01:44:30;12.90;68.60
7077;DHT22;3579;48.956;9.154;2024-01-30T01:46:56;12.90;68.60
7077;DHT22;3579;48.956;9.154;2024-01-30T01:49:25;12.90;68.60
7077;DHT22;3579;48.956;9.154;2024-01-30T01:51:54;12.90;68.60
7077;DHT22;3579;48.956;9.154;2024-01-30T01:54:23;12.90;68.60
7077;DHT22;3579;48.956;9.154;2024-01-30T01:56:51;12.90;68.70
7077;DHT22;3579;48.956;9.154;2024-01-30T01:59:17;12.90;68.70
7077;DHT22;3579;48.956;9.154;2024-01-30T02:01:44;12.90;68.70
7077;DHT22;3579;48.956;9.154;2024-01-30T02:04:11;12.80;68.60
7077;DHT22;3579;48.956;9.154;2024-01-30T02:06:37;12.80;68.70
7077;DHT22;3579;48.956;9.154;2024-01-30T02:09:03;12.80;68.80
7077;DHT22;3579;48.956;9.154;2024-01-30T02:11:30;12.80;68.90
7077;DHT22;3579;48.956;9.154;2024-01-30T02:14:01;12.80;68.90
7077;DHT22;3579;48.956;9.154;2024-01-30T02:16:27;12.80;69.00
7077;DHT22;3579;48.956;9.154;2024-01-30T02:18:53;12.80;69.00
7077;DHT22;3579;48.956;9.154;2024-01-30T02:21:19;12.80;69.00
7077;DHT22;3579;48.956;9.154;2024-01-30T02:23:49;12.70;68.90
7077;DHT22;3579;48.956;9.154;2024-01-30T02:26:16;12.70;69.60
7077;DHT22;3579;48.956;9.154;2024-01-30T02:28:42;12.70;68.90
7077;DHT22;3579;48.956;9.154;2024-01-30T02:31:08;12.70;69.00
7077;DHT22;3579;48.956;9.154;2024-01-30T02:33:34;12.70;69.00
7077;DHT22;3579;48.956;9.154;2024-01-30T02:36:00;12.70;69.00
7077;DHT22;3579;48.956;9.154;2024-01-30T02:38:27;12.70;69.00
7077;DHT22;3579;48.956;9.154;2024-01-30T02:40:54;12.70;69.00
7077;DHT22;3579;48.956;9.154;2024-01-30T02:43:21;12.70;69.00
7077;DHT22;3579;48.956;9.154;2024-01-30T02:45:47;12.70;69.00
7077;DHT22;3579;48.956;9.154;2024-01-30T02:48:13;12.70;69.00
7077;DHT22;3579;48.956;9.154;2024-01-30T02:50:39;14.30;70.70
7077;DHT22;3579;48.956;9.154;2024-01-30T02:53:05;12.70;69.10
7077;DHT22;3579;48.956;9.154;2024-01-30T02:55:31;12.70;69.10
7077;DHT22;3579;48.956;9.154;2024-01-30T02:57:57;12.70;69.00
7077;DHT22;3579;48.956;9.154;2024-01-30T03:00:23;12.70;69.00
7077;DHT22;3579;48.956;9.154;2024-01-30T03:02:49;12.70;69.00
7077;DHT22;3579;48.956;9.154;2024-01-30T03:05:15;12.70;69.00
7077;DHT22;3579;48.956;9.154;2024-01-30T03:07:41;12.70;69.00
7077;DHT22;3579;48.956;9.154;2024-01-30T03:10:07;12.70;69.00
7077;DHT22;3579;48.956;9.154;2024-01-30T03:12:33;12.70;69.00
7077;DHT22;3579;48.956;9.154;2024-01-30T03:14:59;12.70;69.00
7077;DHT22;3579;48.956;9.154;2024-01-30T03:17:26;12.70;69.00
7077;DHT22;3579;48.956;9.154;2024-01-30T03:19:52;12.70;69.10
7077;DHT22;3579;48.956;9.154;2024-01-30T03:22:18;12.70;69.00
7077;DHT22;3579;48.956;9.154;2024-01-30T03:24:44;12.60;69.00
7077;DHT22;3579;48.956;9.154;2024-01-30T03:27:10;12.60;69.00
7077;DHT22;3579;48.956;9.154;2024-01-30T03:29:36;12.60;69.10
7077;DHT22;3579;48.956;9.154;2024-01-30T03:32:02;12.60;69.20
7077;DHT22;3579;48.956;9.154;2024-01-30T03:34:29;12.60;69.20
7077;DHT22;3579;48.956;9.154;2024-01-30T03:36:55;12.60;69.20
7077;DHT22;3579;48.956;9.154;2024-01-30T03:39:23;12.60;69.20
7077;DHT22;3579;48.956;9.154;2024-01-30T03:41:49;12.60;69.10
7077;DHT22;3579;48.956;9.154;2024-01-30T03:44:15;12.70;69.20
7077;DHT22;3579;48.956;9.154;2024-01-30T03:46:42;12.70;69.10
7077;DHT22;3579;48.956;9.154;2024-01-30T03:49:09;12.70;69.00
7077;DHT22;3579;48.956;9.154;2024-01-30T03:51:35;12.80;69.00
7077;DHT22;3579;48.956;9.154;2024-01-30T03:54:01;12.80;68.90
7077;DHT22;3579;48.956;9.154;2024-01-30T03:56:27;12.80;68.80
7077;DHT22;3579;48.956;9.154;2024-01-30T03:58:53;12.80;68.80
7077;DHT22;3579;48.956;9.154;2024-01-30T04:01:19;12.90;68.80
7077;DHT22;3579;48.956;9.154;2024-01-30T04:03:45;12.80;68.70
7077;DHT22;3579;48.956;9.154;2024-01-30T04:06:12;12.90;68.80
7077;DHT22;3579;48.956;9.154;2024-01-30T04:08:38;12.90;68.80
7077;DHT22;3579;48.956;9.154;2024-01-30T04:11:05;12.80;68.70
7077;DHT22;3579;48.956;9.154;2024-01-30T04:13:34;12.80;68.80
7077;DHT22;3579;48.956;9.154;2024-01-30T04:16:00;12.80;68.80
7077;DHT22;3579;48.956;9.154;2024-01-30T04:18:29;12.80;68.80
7077;DHT22;3579;48.956;9.154;2024-01-30T04:20:55;12.80;68.90
7077;DHT22;3579;48.956;9.154;2024-01-30T04:23:21;12.80;68.90
7077;DHT22;3579;48.956;9.154;2024-01-30T04:25:47;12.80;68.80
7077;DHT22;3579;48.956;9.154;2024-01-30T04:28:13;12.80;68.80
7077;DHT22;3579;48.956;9.154;2024-01-30T04:30:40;12.80;68.90
7077;DHT22;3579;48.956;9.154;2024-01-30T04:33:06;12.80;69.00
7077;DHT22;3579;48.956;9.154;2024-01-30T04:35:32;12.70;68.80
7077;DHT22;3579;48.956;9.154;2024-01-30T04:37:58;12.70;68.80
7077;DHT22;3579;48.956;9.154;2024-01-30T04:40:24;12.70;68.80
7077;DHT22;3579;48.956;9.154;2024-01-30T04:42:50;12.70;68.80
7077;DHT22;3579;48.956;9.154;2024-01-30T04:45:16;12.70;68.80
7077;DHT22;3579;48.956;9.154;2024-01-30T04:47:42;12.70;68.80
7077;DHT22;3579;48.956;9.154;2024-01-30T04:50:09;12.70;68.80
7077;DHT22;3579;48.956;9.154;2024-01-30T04:52:35;12.70;68.80
7077;DHT22;3579;48.956;9.154;2024-01-30T04:55:02;12.70;68.80
7077;DHT22;3579;48.956;9.154;2024-01-30T04:57:28;12.70;68.90
7077;DHT22;3579;48.956;9.154;2024-01-30T04:59:54;12.70;68.80
7077;DHT22;3579;48.956;9.154;2024-01-30T05:02:20;12.70;68.80
7077;DHT22;3579;48.956;9.154;2024-01-30T05:04:46;12.70;68.80
7077;DHT22;3579;48.956;9.154;2024-01-30T05:07:12;12.70;68.80
7077;DHT22;3579;48.956;9.154;2024-01-30T05:09:38;12.60;68.70
7077;DHT22;3579;48.956;9.154;2024-01-30T05:12:04;12.60;68.70
7077;DHT22;3579;48.956;9.154;2024-01-30T05:14:30;12.60;68.80
7077;DHT22;3579;48.956;9.154;2024-01-30T05:16:56;12.60;68.80
7077;DHT22;3579;48.956;9.154;2024-01-30T05:19:22;12.60;68.80
7077;DHT22;3579;48.956;9.154;2024-01-30T05:21:49;12.60;68.80
7077;DHT22;3579;48.956;9.154;2024-01-30T05:24:16;12.60;68.80
7077;DHT22;3579;48.956;9.154;2024-01-30T05:26:42;12.60;68.80
7077;DHT22;3579;48.956;9.154;2024-01-30T05:29:08;12.60;68.80
7077;DHT22;3579;48.956;9.154;2024-01-30T05:31:34;12.60;68.80
7077;DHT22;3579;48.956;9.154;2024-01-30T05:34:00;12.60;68.80
7077;DHT22;3579;48.956;9.154;2024-01-30T05:36:26;12.60;68.80
7077;DHT22;3579;48.956;9.154;2024-01-30T05:38:53;12.60;68.80
7077;DHT22;3579;48.956;9.154;2024-01-30T05:41:19;12.50;68.80
7077;DHT22;3579;48.956;9.154;2024-01-30T05:43:46;12.50;68.80
7077;DHT22;3579;48.956;9.154;2024-01-30T05:46:12;12.50;68.90
7077;DHT22;3579;48.956;9.154;2024-01-30T05:48:38;12.50;68.90
7077;DHT22;3579;48.956;9.154;2024-01-30T05:51:05;12.50;69.00
7077;DHT22;3579;48.956;9.154;2024-01-30T05:53:32;12.50;69.00
7077;DHT22;3579;48.956;9.154;2024-01-30T05:55:59;12.50;68.90
7077;DHT22;3579;48.956;9.154;2024-01-30T05:58:25;12.50;69.30
7077;DHT22;3579;48.956;9.154;2024-01-30T06:00:51;12.50;68.90
7077;DHT22;3579;48.956;9.154;2024-01-30T06:03:17;12.50;68.90
7077;DHT22;3579;48.956;9.154;2024-01-30T06:05:43;12.50;68.80
7077;DHT22;3579;48.956;9.154;2024-01-30T06:08:09;12.40;68.40
7077;DHT22;3579;48.956;9.154;2024-01-30T06:10:35;12.50;68.90
7077;DHT22;3579;48.956;9.154;2024-01-30T06:13:02;12.50;68.90
7077;DHT22;3579;48.956;9.154;2024-01-30T06:15:28;12.50;68.80
7077;DHT22;3579;48.956;9.154;2024-01-30T06:17:55;12.50;68.80
7077;DHT22;3579;48.956;9.154;2024-01-30T06:20:21;12.50;68.90
7077;DHT22;3579;48.956;9.154;2024-01-30T06:22:47;12.40;68.70
7077;DHT22;3579;48.956;9.154;2024-01-30T06:25:13;12.40;68.80
7077;DHT22;3579;48.956;9.154;2024-01-30T06:27:39;12.40;68.70
7077;DHT22;3579;48.956;9.154;2024-01-30T06:30:06;12.40;68.80
7077;DHT22;3579;48.956;9.154;2024-01-30T06:32:32;12.40;68.80
7077;DHT22;3579;48.956;9.154;2024-01-30T06:35:00;12.40;68.90
7077;DHT22;3579;48.956;9.154;2024-01-30T06:37:26;12.40;68.90
7077;DHT22;3579;48.956;9.154;2024-01-30T06:39:52;12.40;68.90
7077;DHT22;3579;48.956;9.154;2024-01-30T06:42:19;12.40;68.90
7077;DHT22;3579;48.956;9.154;2024-01-30T06:44:45;12.40;68.80
7077;DHT22;3579;48.956;9.154;2024-01-30T06:47:11;12.40;68.80
7077;DHT22;3579;48.956;9.154;2024-01-30T06:49:37;12.50;68.90
7077;DHT22;3579;48.956;9.154;2024-01-30T06:52:07;12.50;68.90
7077;DHT22;3579;48.956;9.154;2024-01-30T06:54:33;12.50;68.70
7077;DHT22;3579;48.956;9.154;2024-01-30T06:57:00;12.60;68.80
7077;DHT22;3579;48.956;9.154;2024-01-30T06:59:26;12.50;68.60
7077;DHT22;3579;48.956;9.154;2024-01-30T07:01:52;12.60;68.70
7077;DHT22;3579;48.956;9.154;2024-01-30T07:04:18;12.60;68.70
7077;DHT22;3579;48.956;9.154;2024-01-30T07:06:44;12.50;68.60
7077;DHT22;3579;48.956;9.154;2024-01-30T07:09:11;12.50;68.60
7077;DHT22;3579;48.956;9.154;2024-01-30T07:11:37;12.50;68.70
7077;DHT22;3579;48.956;9.154;2024-01-30T07:14:03;12.50;68.70
7077;DHT22;3579;48.956;9.154;2024-01-30T07:16:30;12.50;68.80
7077;DHT22;3579;48.956;9.154;2024-01-30T07:18:56;12.50;68.80
7077;DHT22;3579;48.956;9.154;2024-01-30T07:21:23;12.50;68.80
7077;DHT22;3579;48.956;9.154;2024-01-30T07:23:56;12.50;68.80
7077;DHT22;3579;48.956;9.154;2024-01-30T07:26:22;12.50;68.80
7077;DHT22;3579;48.956;9.154;2024-01-30T07:28:48;12.50;68.90
7077;DHT22;3579;48.956;9.154;2024-01-30T07:31:15;12.50;68.90
7077;DHT22;3579;48.956;9.154;2024-01-30T07:33:41;12.50;68.90
7077;DHT22;3579;48.956;9.154;2024-01-30T07:36:07;12.50;68.80
7077;DHT22;3579;48.956;9.154;2024-01-30T07:38:35;12.50;68.80
7077;DHT22;3579;48.956;9.154;2024-01-30T07:41:01;12.50;68.80
7077;DHT22;3579;48.956;9.154;2024-01-30T07:43:27;12.50;68.80
7077;DHT22;3579;48.956;9.154;2024-01-30T07:45:53;12.50;68.80
7077;DHT22;3579;48.956;9.154;2024-01-30T07:48:19;12.50;68.80
7077;DHT22;3579;48.956;9.154;2024-01-30T07:50:45;12.50;68.80
7077;DHT22;3579;48.956;9.154;2024-01-30T07:53:11;12.50;68.80
7077;DHT22;3579;48.956;9.154;2024-01-30T07:55:37;12.50;68.80
7077;DHT22;3579;48.956;9.154;2024-01-30T07:58:04;12.50;68.80
7077;DHT22;3579;48.956;9.154;2024-01-30T08:00:31;12.50;68.80
7077;DHT22;3579;48.956;9.154;2024-01-30T08:02:57;12.50;68.80
7077;DHT22;3579;48.956;9.154;2024-01-30T08:05:24;12.50;68.80
7077;DHT22;3579;48.956;9.154;2024-01-30T08:07:50;12.50;68.80
7077;DHT22;3579;48.956;9.154;2024-01-30T08:10:16;12.50;68.90
7077;DHT22;3579;48.956;9.154;2024-01-30T08:12:46;12.50;68.70
7077;DHT22;3579;48.956;9.154;2024-01-30T08:15:12;12.60;68.70
7077;DHT22;3579;48.956;9.154;2024-01-30T08:17:39;12.60;68.70
7077;DHT22;3579;48.956;9.154;2024-01-30T08:20:05;12.60;68.70
7077;DHT22;3579;48.956;9.154;2024-01-30T08:22:32;12.60;68.70
7077;DHT22;3579;48.956;9.154;2024-01-30T08:24:58;12.60;68.60
7077;DHT22;3579;48.956;9.154;2024-01-30T08:27:24;12.70;68.60
7077;DHT22;3579;48.956;9.154;2024-01-30T08:29:51;12.70;68.60
7077;DHT22;3579;48.956;9.154;2024-01-30T08:32:17;12.70;68.50
7077;DHT22;3579;48.956;9.154;2024-01-30T08:34:43;12.80;68.50
7077;DHT22;3579;48.956;9.154;2024-01-30T08:37:09;12.80;68.50
7077;DHT22;3579;48.956;9.154;2024-01-30T08:39:35;12.80;68.50
7077;DHT22;3579;48.956;9.154;2024-01-30T08:42:01;12.80;68.50
7077;DHT22;3579;48.956;9.154;2024-01-30T08:44:27;12.90;68.60
7077;DHT22;3579;48.956;9.154;2024-01-30T08:46:53;12.90;68.60
7077;DHT22;3579;48.956;9.154;2024-01-30T08:49:20;12.90;68.50
7077;DHT22;3579;48.956;9.154;2024-01-30T08:51:46;12.90;68.50
7077;DHT22;3579;48.956;9.154;2024-01-30T08:54:13;12.90;68.50
7077;DHT22;3579;48.956;9.154;2024-01-30T08:56:39;12.90;68.40
7077;DHT22;3579;48.956;9.154;2024-01-30T08:59:05;13.00;68.50
7077;DHT22;3579;48.956;9.154;2024-01-30T09:01:31;13.00;68.50
7077;DHT22;3579;48.956;9.154;2024-01-30T09:03:57;13.00;68.50
7077;DHT22;3579;48.956;9.154;2024-01-30T09:06:23;13.00;68.40
7077;DHT22;3579;48.956;9.154;2024-01-30T09:08:52;13.00;68.40
7077;DHT22;3579;48.956;9.154;2024-01-30T09:11:18;13.00;68.30
7077;DHT22;3579;48.956;9.154;2024-01-30T09:13:44;13.00;68.30
7077;DHT22;3579;48.956;9.154;2024-01-30T09:16:10;13.00;68.20
7077;DHT22;3579;48.956;9.154;2024-01-30T09:18:36;13.10;68.30
7077;DHT22;3579;48.956;9.154;2024-01-30T09:21:03;13.10;68.30
7077;DHT22;3579;48.956;9.154;2024-01-30T09:23:29;13.10;68.20
7077;DHT22;3579;48.956;9.154;2024-01-30T09:25:55;13.20;68.30
7077;DHT22;3579;48.956;9.154;2024-01-30T09:28:21;13.20;68.30
7077;DHT22;3579;48.956;9.154;2024-01-30T09:30:47;13.20;68.20
7077;DHT22;3579;48.956;9.154;2024-01-30T09:33:13;13.30;68.20
7077;DHT22;3579;48.956;9.154;2024-01-30T09:35:39;13.30;68.20
7077;DHT22;3579;48.956;9.154;2024-01-30T09:38:06;13.30;68.10
7077;DHT22;3579;48.956;9.154;2024-01-30T09:40:32;13.40;68.20
7077;DHT22;3579;48.956;9.154;2024-01-30T09:42:58;13.40;68.20
7077;DHT22;3579;48.956;9.154;2024-01-30T09:45:28;13.40;68.20
7077;DHT22;3579;48.956;9.154;2024-01-30T09:47:56;13.40;68.10
7077;DHT22;3579;48.956;9.154;2024-01-30T09:50:24;13.40;68.10
7077;DHT22;3579;48.956;9.154;2024-01-30T09:52:51;13.50;68.20
7077;DHT22;3579;48.956;9.154;2024-01-30T09:55:18;13.50;68.20
7077;DHT22;3579;48.956;9.154;2024-01-30T09:57:45;13.60;68.20
7077;DHT22;3579;48.956;9.154;2024-01-30T10:00:11;13.50;68.10
7077;DHT22;3579;48.956;9.154;2024-01-30T10:02:39;13.50;68.00
7077;DHT22;3579;48.956;9.154;2024-01-30T10:05:05;14.50;69.10
7077;DHT22;3579;48.956;9.154;2024-01-30T10:07:31;13.60;68.70
7077;DHT22;3579;48.956;9.154;2024-01-30T10:09:58;13.60;68.00
7077;DHT22;3579;48.956;9.154;2024-01-30T10:12:26;13.60;68.00
7077;DHT22;3579;48.956;9.154;2024-01-30T10:14:52;13.60;68.00
7077;DHT22;3579;48.956;9.154;2024-01-30T10:17:18;13.60;67.90
7077;DHT22;3579;48.956;9.154;2024-01-30T10:19:47;13.60;67.80
7077;DHT22;3579;48.956;9.154;2024-01-30T10:22:13;13.70;67.80
7077;DHT22;3579;48.956;9.154;2024-01-30T10:24:39;13.70;67.70
7077;DHT22;3579;48.956;9.154;2024-01-30T10:27:06;13.70;67.60
7077;DHT22;3579;48.956;9.154;2024-01-30T10:29:32;13.70;67.60
7077;DHT22;3579;48.956;9.154;2024-01-30T10:34:26;13.80;67.60
7077;DHT22;3579;48.956;9.154;2024-01-30T10:37:07;13.80;67.60
7077;DHT22;3579;48.956;9.154;2024-01-30T10:39:41;13.80;67.50
7077;DHT22;3579;48.956;9.154;2024-01-30T10:47:21;13.80;67.40
7077;DHT22;3579;48.956;9.154;2024-01-30T10:49:51;13.80;67.40
7077;DHT22;3579;48.956;9.154;2024-01-30T10:52:18;13.80;67.40
7077;DHT22;3579;48.956;9.154;2024-01-30T10:54:46;13.80;68.00
7077;DHT22;3579;48.956;9.154;2024-01-30T10:57:13;13.90;67.40
7077;DHT22;3579;48.956;9.154;2024-01-30T10:59:41;13.90;67.30
7077;DHT22;3579;48.956;9.154;2024-01-30T11:02:08;13.90;67.30
7077;DHT22;3579;48.956;9.154;2024-01-30T11:04:40;13.90;67.30
7077;DHT22;3579;48.956;9.154;2024-01-30T11:07:24;13.90;67.30
7077;DHT22;3579;48.956;9.154;2024-01-30T11:09:53;13.90;67.20
7077;DHT22;3579;48.956;9.154;2024-01-30T11:12:24;14.00;67.20
7077;DHT22;3579;48.956;9.154;2024-01-30T11:15:05;14.00;67.20
7077;DHT22;3579;48.956;9.154;2024-01-30T11:20:25;14.00;67.10
7077;DHT22;3579;48.956;9.154;2024-01-30T11:22:53;14.00;67.10
7077;DHT22;3579;48.956;9.154;2024-01-30T11:25:20;14.00;67.10
7077;DHT22;3579;48.956;9.154;2024-01-30T11:27:49;14.00;67.00
7077;DHT22;3579;48.956;9.154;2024-01-30T11:30:25;14.10;67.10
7077;DHT22;3579;48.956;9.154;2024-01-30T11:33:27;14.10;67.00
7077;DHT22;3579;48.956;9.154;2024-01-30T11:35:53;14.10;67.00
7077;DHT22;3579;48.956;9.154;2024-01-30T11:38:19;14.10;67.00
7077;DHT22;3579;48.956;9.154;2024-01-30T11:40:48;14.10;66.90
7077;DHT22;3579;48.956;9.154;2024-01-30T11:43:15;14.10;66.90
7077;DHT22;3579;48.956;9.154;2024-01-30T11:45:42;14.10;66.90
7077;DHT22;3579;48.956;9.154;2024-01-30T11:48:12;14.10;66.90
7077;DHT22;3579;48.956;9.154;2024-01-30T11:50:38;14.10;66.90
7077;DHT22;3579;48.956;9.154;2024-01-30T11:53:05;14.20;66.90
7077;DHT22;3579;48.956;9.154;2024-01-30T11:55:31;14.20;66.90
7077;DHT22;3579;48.956;9.154;2024-01-30T11:57:58;14.20;66.80
7077;DHT22;3579;48.956;9.154;2024-01-30T12:00:24;14.20;66.90
7077;DHT22;3579;48.956;9.154;2024-01-30T12:02:52;14.20;66.80
7077;DHT22;3579;48.956;9.154;2024-01-30T12:05:25;14.20;66.80
7077;DHT22;3579;48.956;9.154;2024-01-30T12:07:51;14.30;66.90
7077;DHT22;3579;48.956;9.154;2024-01-30T12:10:18;14.30;66.80
7077;DHT22;3579;48.956;9.154;2024-01-30T12:12:51;14.30;66.80
7077;DHT22;3579;48.956;9.154;2024-01-30T12:15:18;14.30;66.80
7077;DHT22;3579;48.956;9.154;2024-01-30T12:17:47;14.30;66.80
7077;DHT22;3579;48.956;9.154;2024-01-30T12:20:17;14.30;66.70
7077;DHT22;3579;48.956;9.154;2024-01-30T12:22:47;14.40;66.80
7077;DHT22;3579;48.956;9.154;2024-01-30T12:25:15;14.30;66.80
7077;DHT22;3579;48.956;9.154;2024-01-30T12:27:46;14.30;66.90
7077;DHT22;3579;48.956;9.154;2024-01-30T12:30:13;14.40;67.00
7077;DHT22;3579;48.956;9.154;2024-01-30T12:32:42;14.40;66.90
7077;DHT22;3579;48.956;9.154;2024-01-30T12:35:13;14.40;66.90
7077;DHT22;3579;48.956;9.154;2024-01-30T12:37:40;14.40;66.80
7077;DHT22;3579;48.956;9.154;2024-01-30T12:40:11;14.40;66.80
7077;DHT22;3579;48.956;9.154;2024-01-30T12:42:39;14.40;66.80
7077;DHT22;3579;48.956;9.154;2024-01-30T12:45:05;14.40;66.80
7077;DHT22;3579;48.956;9.154;2024-01-30T12:47:32;14.40;66.70
7077;DHT22;3579;48.956;9.154;2024-01-30T12:49:58;14.50;66.80
7077;DHT22;3579;48.956;9.154;2024-01-30T12:52:24;14.50;66.80
7077;DHT22;3579;48.956;9.154;2024-01-30T12:54:51;14.50;66.70
7077;DHT22;3579;48.956;9.154;2024-01-30T12:57:17;14.50;66.70
7077;DHT22;3579;48.956;9.154;2024-01-30T12:59:45;14.50;66.70
7077;DHT22;3579;48.956;9.154;2024-01-30T13:02:12;14.50;66.70
7077;DHT22;3579;48.956;9.154;2024-01-30T13:04:39;14.50;66.60
7077;DHT22;3579;48.956;9.154;2024-01-30T13:07:05;14.50;66.60
7077;DHT22;3579;48.956;9.154;2024-01-30T13:09:31;14.60;66.80
7077;DHT22;3579;48.956;9.154;2024-01-30T13:11:58;14.60;66.70
7077;DHT22;3579;48.956;9.154;2024-01-30T13:14:26;14.60;66.70
7077;DHT22;3579;48.956;9.154;2024-01-30T13:16:52;14.60;66.70
7077;DHT22;3579;48.956;9.154;2024-01-30T13:19:18;14.60;66.60
7077;DHT22;3579;48.956;9.154;2024-01-30T13:21:44;14.60;66.70
7077;DHT22;3579;48.956;9.154;2024-01-30T13:24:11;14.60;66.70
7077;DHT22;3579;48.956;9.154;2024-01-30T13:26:37;14.70;66.70
7077;DHT22;3579;48.956;9.154;2024-01-30T13:29:03;14.70;66.70
7077;DHT22;3579;48.956;9.154;2024-01-30T13:31:29;14.70;66.70
7077;DHT22;3579;48.956;9.154;2024-01-30T13:33:56;14.70;66.70
7077;DHT22;3579;48.956;9.154;2024-01-30T13:36:22;14.70;66.70
7077;DHT22;3579;48.956;9.154;2024-01-30T13:38:48;14.70;66.70
7077;DHT22;3579;48.956;9.154;2024-01-30T13:41:14;14.70;66.70
7077;DHT22;3579;48.956;9.154;2024-01-30T13:43:40;14.70;66.70
7077;DHT22;3579;48.956;9.154;2024-01-30T13:46:07;14.70;66.70
7077;DHT22;3579;48.956;9.154;2024-01-30T13:48:33;14.70;66.60
7077;DHT22;3579;48.956;9.154;2024-01-30T13:50:59;14.70;66.60
7077;DHT22;3579;48.956;9.154;2024-01-30T13:53:25;14.70;66.60
7077;DHT22;3579;48.956;9.154;2024-01-30T13:55:51;14.70;66.60
7077;DHT22;3579;48.956;9.154;2024-01-30T13:58:17;14.70;66.60
7077;DHT22;3579;48.956;9.154;2024-01-30T14:00:43;14.70;66.70
7077;DHT22;3579;48.956;9.154;2024-01-30T14:03:09;14.70;66.70
7077;DHT22;3579;48.956;9.154;2024-01-30T14:05:35;14.70;66.60
7077;DHT22;3579;48.956;9.154;2024-01-30T14:08:02;14.70;66.70
7077;DHT22;3579;48.956;9.154;2024-01-30T14:10:28;14.70;66.70
7077;DHT22;3579;48.956;9.154;2024-01-30T14:12:54;14.70;66.70
7077;DHT22;3579;48.956;9.154;2024-01-30T14:15:20;14.70;66.70
7077;DHT22;3579;48.956;9.154;2024-01-30T14:17:47;14.70;66.70
7077;DHT22;3579;48.956;9.154;2024-01-30T14:20:15;14.70;66.70
7077;DHT22;3579;48.956;9.154;2024-01-30T14:22:44;14.70;66.70
7077;DHT22;3579;48.956;9.154;2024-01-30T14:25:10;14.70;66.70
7077;DHT22;3579;48.956;9.154;2024-01-30T14:27:36;14.70;66.70
7077;DHT22;3579;48.956;9.154;2024-01-30T14:30:03;14.80;66.90
7077;DHT22;3579;48.956;9.154;2024-01-30T14:32:29;14.50;66.60
7077;DHT22;3579;48.956;9.154;2024-01-30T14:34:55;14.70;66.70
7077;DHT22;3579;48.956;9.154;2024-01-30T14:37:21;14.70;66.80
7077;DHT22;3579;48.956;9.154;2024-01-30T14:39:48;14.80;66.80
7077;DHT22;3579;48.956;9.154;2024-01-30T14:42:15;14.70;66.80
7077;DHT22;3579;48.956;9.154;2024-01-30T14:44:41;14.70;66.80
7077;DHT22;3579;48.956;9.154;2024-01-30T14:47:08;14.70;66.90
7077;DHT22;3579;48.956;9.154;2024-01-30T14:49:34;14.70;66.90
7077;DHT22;3579;48.956;9.154;2024-01-30T14:52:00;14.70;67.60
7077;DHT22;3579;48.956;9.154;2024-01-30T14:54:27;14.70;67.70
7077;DHT22;3579;48.956;9.154;2024-01-30T14:56:53;14.70;67.10
7077;DHT22;3579;48.956;9.154;2024-01-30T14:59:19;14.70;67.10
7077;DHT22;3579;48.956;9.154;2024-01-30T15:01:45;14.70;67.10
7077;DHT22;3579;48.956;9.154;2024-01-30T15:04:12;14.70;67.20
7077;DHT22;3579;48.956;9.154;2024-01-30T15:06:38;14.70;67.20
7077;DHT22;3579;48.956;9.154;2024-01-30T15:09:08;14.70;67.20
7077;DHT22;3579;48.956;9.154;2024-01-30T15:11:35;14.70;67.20
7077;DHT22;3579;48.956;9.154;2024-01-30T15:14:01;14.70;67.20
7077;DHT22;3579;48.956;9.154;2024-01-30T15:16:27;14.70;67.20
7077;DHT22;3579;48.956;9.154;2024-01-30T15:18:54;14.70;67.30
7077;DHT22;3579;48.956;9.154;2024-01-30T15:21:20;14.70;67.30
7077;DHT22;3579;48.956;9.154;2024-01-30T15:23:48;14.70;67.30
7077;DHT22;3579;48.956;9.154;2024-01-30T15:26:15;14.70;67.30
7077;DHT22;3579;48.956;9.154;2024-01-30T15:28:41;14.70;67.30
7077;DHT22;3579;48.956;9.154;2024-01-30T15:31:07;14.70;67.30
7077;DHT22;3579;48.956;9.154;2024-01-30T15:33:33;14.70;67.40
7077;DHT22;3579;48.956;9.154;2024-01-30T15:36:01;14.70;67.40
7077;DHT22;3579;48.956;9.154;2024-01-30T15:38:27;14.60;67.40
7077;DHT22;3579;48.956;9.154;2024-01-30T15:40:55;14.60;67.40
7077;DHT22;3579;48.956;9.154;2024-01-30T15:43:22;14.60;67.40
7077;DHT22;3579;48.956;9.154;2024-01-30T15:45:49;14.60;67.40
7077;DHT22;3579;48.956;9.154;2024-01-30T15:48:17;14.60;67.40
7077;DHT22;3579;48.956;9.154;2024-01-30T15:50:43;14.60;67.50
7077;DHT22;3579;48.956;9.154;2024-01-30T15:53:09;14.60;67.50
7077;DHT22;3579;48.956;9.154;2024-01-30T15:55:35;14.60;67.60
7077;DHT22;3579;48.956;9.154;2024-01-30T15:58:02;14.60;67.50
7077;DHT22;3579;48.956;9.154;2024-01-30T16:00:29;14.60;67.50
7077;DHT22;3579;48.956;9.154;2024-01-30T16:02:56;14.60;67.50
7077;DHT22;3579;48.956;9.154;2024-01-30T16:05:24;14.60;67.60
7077;DHT22;3579;48.956;9.154;2024-01-30T16:07:50;14.60;67.70
7077;DHT22;3579;48.956;9.154;2024-01-30T16:10:16;14.60;67.60